Terminal Aerodrome Forecast
Issued by NWS

Home | Current Version | Previous Version | Graphics & Text | Print | Product List | Glossary On
Versions: 1 2 3 4 5 6 7 8 9 10 11 12 13 14 15 16 17 18 19 20 21 22 23
000
FTUS43 KTOP 250900 AAC
TAFMHK
TAF AMD
KMHK 250951Z 2510/2606 00000KT 2SM BR OVC003
      TEMPO 2510/2514 1/2SM FG OVC002
     FM251400 17005KT P6SM SCT012 BKN120
     FM251800 01015G24KT P6SM -RA BKN035 BKN100=

USA.gov is the U.S. government's official web portal to all federal, state and local government web resources and services.